Terminal Aerodrome Forecast
Issued by NWS

Home | Current Version | Previous Version | Text Only | Print | Product List | Glossary On
Versions: 1 2 3 4 5 6 7 8 9 10 11 12 13 14 15 16 17 18 19 20 21 22 23 24 25 26 27 28 29 30 31 32 33 34 35 36 37 38 39
947
FTAK31 PANC 291738
TAFAVD
TAF
PAVD 291738Z 2918/3018 VRB02KT 1/2SM SN FZFG SCT001 OVC015
      TEMPO 2918/2922 1/4SM +SN FZFG BKN001
     FM292200 VRB03KT 1SM -SN BR SCT003 OVC015
     FM300200 VRB03KT 2SM -SHSN BR SCT003 OVC015
     FM300900 VRB03KT 4SM -SHSN SCT015 BKN025
     FM301200 VRB03KT P6SM VCSH SCT003 SCT045 BKN060
      AMD LTD TO CLD VIS AND WIND=

USA.gov is the U.S. government's official web portal to all federal, state and local government web resources and services.